KTWF

Magic Valley Regional Airport

Airport
ICAO code
KTWF
Summary
ICAO Region
NAM
ICAO Territory
Location

Twin Falls, Idaho,

Coordinates
42° 28' 54" N , 114° 29' 15" W
KCC
Airport CFIT
Altimeter Temperature Error Correction
Airport RE
Hot and High Operations
Metar
KTWF 260053Z AUTO 23014G22KT 10SM CLR 12/M04 A2986 RMK AO2 SLP090 T01221039

Description

Magic Valley Regional Airport, also known as Joslin Field, is a public airport located 6 km south of Twin Falls, in Twin Falls County, Idaho.

Climatology

Cold Semi-arid climate (Köppen climate classification BSk). - Hot, sometimes extremely hot summers and cold, sometimes very cold winters. Some snowfall during the winter. Areas featuring cold semi-arid climates are sometimes subject to major temperature swings during a 24 hour period.

Runways

Designator Length Width Surface Rops
12/30 983 23 ASP Yes/Yes
7/25 2653 46 ASP Yes/Yes

Airport map

Aerial View

SKYbrary Partners:

Safety knowledge contributed by: